createdAt,value
2019-01-02T00:02:11.113Z,80.50
2019-01-02T00:07:14.546Z,80.45
2019-01-02T00:12:17.992Z,80.90
2019-01-02T00:17:21.429Z,81.48
2019-01-02T00:22:24.877Z,80.75
2019-01-02T00:27:28.399Z,82.75
2019-01-02T00:32:31.845Z,82.22
2019-01-02T00:37:35.279Z,83.15
2019-01-02T00:42:38.723Z,81.09
2019-01-02T00:47:42.172Z,81.88
2019-01-02T00:52:45.590Z,81.95
2019-01-02T00:57:49.015Z,83.46
2019-01-02T01:02:52.457Z,87.07
2019-01-02T01:07:55.885Z,91.55
2019-01-02T01:12:59.314Z,94.15
2019-01-02T01:18:02.755Z,94.36
2019-01-02T01:23:06.442Z,94.23
2019-01-02T01:28:10.246Z,94.36
2019-01-02T01:33:13.660Z,94.90
2019-01-02T01:38:17.096Z,94.04
2019-01-02T01:43:20.905Z,93.33
2019-01-02T01:48:24.332Z,93.08
2019-01-02T01:53:27.769Z,93.86
2019-01-02T01:58:31.197Z,95.40
2019-01-02T02:03:35.095Z,95.77
2019-01-02T02:08:38.533Z,95.85
2019-01-02T02:13:41.985Z,96.16
2019-01-02T02:18:45.776Z,97.22
2019-01-02T02:23:49.199Z,97.34
2019-01-02T02:28:52.628Z,97.46
2019-01-02T02:33:56.079Z,97.62
2019-01-02T02:38:59.975Z,97.43
2019-01-02T02:44:03.783Z,98.65
2019-01-02T02:49:07.670Z,100.00
2019-01-02T02:54:11.486Z,100.00
2019-01-02T02:59:15.317Z,100.00
2019-01-02T03:04:19.118Z,100.00
2019-01-02T03:09:22.925Z,100.00
2019-01-02T03:14:26.409Z,100.00
2019-01-02T03:19:30.221Z,100.00
2019-01-02T03:24:34.020Z,100.00
2019-01-02T03:29:37.815Z,99.87
2019-01-02T03:34:41.557Z,99.64
2019-01-02T03:39:44.975Z,99.16
2019-01-02T03:44:48.386Z,98.65
2019-01-02T03:49:51.825Z,97.94
2019-01-02T03:54:55.266Z,96.79
2019-01-02T03:59:58.703Z,96.49
2019-01-02T04:05:02.134Z,96.70
2019-01-02T04:10:08.603Z,96.04
2019-01-02T04:15:12.038Z,99.19
2019-01-02T04:20:15.470Z,100.00
2019-01-02T04:25:18.907Z,100.00
2019-01-02T04:30:22.369Z,100.00
2019-01-02T04:35:25.792Z,100.00
2019-01-02T04:40:29.225Z,100.00
2019-01-02T04:45:32.663Z,100.00
2019-01-02T04:50:36.092Z,100.00
2019-01-02T04:55:39.536Z,100.00
2019-01-02T05:00:42.967Z,100.00
2019-01-02T05:05:46.421Z,100.00
2019-01-02T05:10:49.872Z,100.00
2019-01-02T05:15:53.274Z,100.00
2019-01-02T05:20:56.716Z,100.00
2019-01-02T05:26:00.156Z,100.00
2019-01-02T05:31:03.600Z,100.00
2019-01-02T05:36:07.033Z,100.00
2019-01-02T05:41:10.471Z,100.00
2019-01-02T05:46:13.900Z,100.00
2019-01-02T05:51:17.321Z,100.00
2019-01-02T05:56:20.932Z,100.00
2019-01-02T06:01:24.392Z,100.00
2019-01-02T06:06:27.793Z,97.86
2019-01-02T06:11:31.230Z,98.00
2019-01-02T06:16:34.686Z,96.19
2019-01-02T06:21:38.111Z,95.75
2019-01-02T06:26:41.539Z,96.89
2019-01-02T06:31:44.966Z,95.78
2019-01-02T06:36:48.388Z,93.18
2019-01-02T06:41:51.870Z,91.85
2019-01-02T06:46:55.326Z,91.47
2019-01-02T06:51:58.770Z,91.06
2019-01-02T06:57:02.184Z,89.92
2019-01-02T07:02:05.617Z,90.05
2019-01-02T07:07:09.080Z,88.30
2019-01-02T07:12:12.513Z,88.28
2019-01-02T07:17:15.934Z,89.74
2019-01-02T07:22:19.357Z,88.77
2019-01-02T07:27:22.785Z,86.57
2019-01-02T07:32:26.233Z,85.95
2019-01-02T07:37:49.539Z,86.15
2019-01-02T07:43:05.229Z,85.85
2019-01-02T07:48:31.026Z,85.98
2019-01-02T07:53:58.824Z,87.08
2019-01-02T07:59:17.464Z,85.90
2019-01-02T08:04:36.172Z,87.00
2019-01-02T08:09:45.237Z,89.13
2019-01-02T08:14:51.705Z,90.02
2019-01-02T08:20:22.143Z,89.98
2019-01-02T08:25:28.617Z,90.34
2019-01-02T08:30:53.280Z,90.58
2019-01-02T08:36:02.522Z,91.44
2019-01-02T08:41:11.769Z,90.88
2019-01-02T08:46:39.146Z,90.45
2019-01-02T08:51:48.362Z,91.10
2019-01-02T08:57:09.830Z,92.11
2019-01-02T09:02:31.305Z,91.08
2019-01-02T09:07:43.974Z,91.97
2019-01-02T09:13:07.116Z,91.43
2019-01-02T09:18:41.022Z,90.95
2019-01-02T09:24:02.711Z,91.30
2019-01-02T09:29:23.788Z,89.39
2019-01-02T09:34:54.084Z,87.65
2019-01-02T09:40:03.508Z,85.72
2019-01-02T09:45:43.703Z,85.86
2019-01-02T09:51:21.950Z,83.16
2019-01-02T09:56:33.955Z,81.29
2019-01-02T10:01:49.398Z,80.62
2019-01-02T10:06:55.860Z,77.65
2019-01-02T10:12:29.149Z,77.46
2019-01-02T10:17:38.566Z,76.16
2019-01-02T10:23:04.679Z,76.01
2019-01-02T10:28:20.053Z,76.11
2019-01-02T10:33:41.403Z,72.99
2019-01-02T10:38:50.382Z,70.86
2019-01-02T10:44:14.853Z,71.20
2019-01-02T10:49:21.364Z,70.56
2019-01-02T10:54:45.506Z,65.89
2019-01-02T11:00:16.293Z,66.05
2019-01-02T11:05:31.682Z,64.16
2019-01-02T11:10:46.840Z,65.02
2019-01-02T11:15:53.328Z,64.59
2019-01-02T11:21:17.902Z,61.25
2019-01-02T11:26:52.969Z,63.67
2019-01-02T11:32:32.458Z,61.41
2019-01-02T11:37:42.247Z,59.77
2019-01-02T11:42:57.580Z,61.00
2019-01-02T11:48:00.989Z,60.84
2019-01-02T11:53:04.431Z,60.57
2019-01-02T11:58:07.855Z,61.02
2019-01-02T12:03:11.317Z,60.44
2019-01-02T18:52:12.455Z,84.91
2019-01-02T18:57:21.687Z,83.91
2019-01-02T19:02:32.667Z,80.71
2019-01-02T19:07:58.320Z,80.56
2019-01-02T19:13:03.540Z,83.83
2019-01-02T19:18:10.287Z,83.41
2019-01-02T19:23:15.673Z,84.61
2019-01-02T19:28:19.150Z,84.15
2019-01-02T19:33:22.613Z,85.64
2019-01-02T19:38:26.051Z,86.26
2019-01-02T19:43:29.512Z,85.40
2019-01-02T19:48:32.960Z,85.43
2019-01-02T19:53:36.562Z,86.70
2019-01-02T19:58:40.043Z,87.33
2019-01-02T20:03:45.134Z,85.63
2019-01-02T20:08:48.595Z,85.37
2019-01-02T20:13:52.035Z,85.31
2019-01-02T20:18:55.540Z,87.16
2019-01-02T20:24:00.780Z,87.64
2019-01-02T20:29:04.237Z,87.31
2019-01-02T20:34:07.637Z,88.71
2019-01-02T20:39:11.084Z,86.94
2019-01-02T20:44:14.468Z,88.38
2019-01-02T20:49:17.906Z,88.88
2019-01-02T20:54:21.328Z,89.56
2019-01-02T20:59:24.755Z,90.00
2019-01-02T21:04:28.162Z,90.67
2019-01-02T21:09:31.591Z,89.62
2019-01-02T21:14:35.005Z,89.33
2019-01-02T21:19:38.435Z,88.68
2019-01-02T21:24:41.869Z,89.00
2019-01-02T21:29:45.339Z,88.91
2019-01-02T21:34:48.763Z,87.18
2019-01-02T21:39:52.190Z,87.96
2019-01-02T21:44:55.614Z,88.35
2019-01-02T21:49:59.154Z,88.03
2019-01-02T21:55:02.640Z,88.25
2019-01-02T22:00:09.614Z,87.89
2019-01-02T22:05:13.492Z,87.29
2019-01-02T22:10:16.948Z,86.79
2019-01-02T22:15:20.351Z,87.54
2019-01-02T22:20:23.772Z,87.56
2019-01-02T22:25:27.257Z,86.92
2019-01-02T22:30:32.243Z,86.26
2019-01-02T22:35:35.671Z,86.84
2019-01-02T22:40:39.119Z,87.63
2019-01-02T22:45:42.541Z,87.34
2019-01-02T22:50:46.019Z,87.06
2019-01-02T22:55:49.454Z,87.83
2019-01-02T23:01:04.393Z,87.72
2019-01-02T23:06:25.752Z,87.91
2019-01-02T23:11:39.830Z,87.87
2019-01-02T23:17:00.369Z,88.43
2019-01-02T23:22:05.457Z,88.30
2019-01-02T23:27:25.870Z,88.18
2019-01-02T23:32:33.960Z,87.76
2019-01-02T23:37:55.178Z,88.54
2019-01-02T23:43:18.139Z,88.53
2019-01-02T23:48:28.964Z,88.74
2019-01-02T23:53:34.019Z,89.44
2019-01-02T23:58:57.175Z,90.17
